17:28
Airports
History
Links
Donate
Help keep this website running!
PayPal
Bitcoin
This page is community maintained. The information is intended for PC simulator navigation or reference.
Always use approved charts for navigation.
SSNH
Novo Hamburgo
Novo Hamburgo (SSNH)
Novo Hamburgo, Rio Grande do Sul, Brazil (93544)
(C)
Lat/Lng:29° 41' 45" S / 51° 4' 54.01" W
-29.695833 / -51.081669
Elevation:66'ft / 20mMSL
ID / ICAO:SSNH
Runways:1
Longest:02-20
Concrete 1,207m / 3,960ft
Controlled:Yes
Nearby Weather17:00 GMT 2017-11-21
Nearby weather at SBCO, Canoas located 17.7 nautical miles from SSNH
Altimeter: 29.83
Visibility: 2.5 statute miles
Wind: 14 knots (from 180°)
Temp: 21°c / 70°f
Humidity: 83.0%

METAR: SBCO 211700Z 18014G24KT 4000 -RA BR BKN016 BKN025 FEW040TCU 21/18 Q1010

(Powered by phpweather)
Runway 02 / 20
Dimensions:1207 x 17.1m 3960' x 56'ft
Surface:Concrete
Edge Lights:Medium intensity
Runway 02 [A]Runway 20 [B]
Heading:005°TH 185°TH
Lat:
Lng:
29° 42' 4.33"S
51° 4' 56.35"W
29° 41' 25.67"S
51° 4' 51.67"W
ALS:MALSMALS
User Notes and Comments
29° 41' 45" S / 51° 4' 54.01" W
Distance To
Airport ID:
Nearby Airports
4 Aeroclube 6.2 NM
SSBZ ENE 77°
(C) Canoas 17.7 NM
SBCO ( WX ) SSW 192°
(C) Salgado Filho 21.3 NM
SBPA ( WX ) SSW 194°
4 Fazenda do Jacui 23.8 NM
SSJC SSW 213°
(C) Montenegro 24.5 NM
SSNG W 266°
(C) Canela 27.0 NM
SSCN NNE 33°
4 El Dorado 32.6 NM
SSMK SW 216°
VFR Chart
Flight Planning at SkyVector.com